De Borgia, MT (59830)

11:47 AM MDT on July 06, 2015 (GMT -0600)
Little Beaver Creek | | Change Station
CLOSE
Current Station
Personal Weather Station
Location: Trout Creek, MT
Elevation: 2583 ft
Nearby Weather Stations

Elev 2583 ft 47.69 °N, 115.48 °W | Updated 2 minutes ago

Clear
Clear
71.3 °F
Feels Like 77 °F
N
2.0
Wind Variable Wind from SSE
Gusts 2.0 mph

Today
High -- | Low -- °F
--% Chance of Precip.
Yesterday
High -- | Low -- °F
Precip. -- in
5:51 AM 9:39 PM
Waning Gibbous, 73% visible
Pressure 30.12 in
Visibility 10.0 miles
Clouds Clear
Heat Index 77 °F
Dew Point 51 °F
Humidity 48%
Rainfall 0.00 in
Snow Depth Not available.
UV 7 out of 12
Pollen 5.50 out of 12
Air Quality Not available.
Flu Activity Not available.
METAR KMSO 061653Z 00000KT 10SM CLR 19/06 A3017 RMK AO2 SLP200 T01940061

More Conditions Fewer Conditions

Pressure 30.12 in
Visibility 10.0 miles
Clouds Clear
Heat Index 77 °F
Dew Point 51 °F
Humidity 48%
Rainfall 0.00 in
Snow Depth Not available.
UV 7 out of 12
Pollen 5.50 out of 12
Air Quality Not available.
Flu Activity Not available.
METAR KMSO 061653Z 00000KT 10SM CLR 19/06 A3017 RMK AO2 SLP200 T01940061

More Conditions Fewer Conditions

10-Day Weather Forecast

×

Almanac

Astronomy

Jul. 06, 2015 Rise Set
Actual Time
Civil Twilight
Nautical Twilight
Astronomical Twilight
Moon
Length of Visible Light
Length of Day
Tomorrow will be .
, % of the Moon is Illuminated

Today's Extremes

State Highs State Lows

Community

WunderPhotos

Upload Photos

1,835,607 photos uploaded!

WunderBlogs® & News

Nearby

Air Quality

  Air Quality AQ Index Pollutant
Not available.

Snow Depth

Station Depth Elevation

Earthquake Activity

City Distance Mag. Time & Date
Minimum magnitude displayed is 2.5.

Coastal Water Temperatures

Place Temperature

Stations

Nearby Weather Stations

Station Location Temp. Windchill Dew Point Humidity Wind Precip. Elev Updated Type